Time;durP1;ratioP1;P1;durP2;ratioP2;P2;SDS_P1;SDS_P2;PMS_P1;PMS_P2;Temp;Humidity;BMP_temperature;BMP_pressure;BME280_temperature;BME280_humidity;BME280_pressure;Samples;Min_cycle;Max_cycle;Signal;HPM_P1;HPM_P2
2023/08/21 00:00:15;;;;;;;;;;;;;;;;;;5019428;28;19966;-62
2023/08/21 00:02:41;;;;;;;;;;;;;;;;;;5017700;28;20378;-62
2023/08/21 00:05:06;;;;;;;;;;;;;;;;;;5010760;28;19921;-62
2023/08/21 00:07:34;;;;;;;;;;;;;;;;;;5004758;28;19917;-64
2023/08/21 00:10:02;;;;;;;;;;;;;;;;;;5017841;28;19925;-64
2023/08/21 00:12:30;;;;;;;;;;;;;;;;;;5026118;28;19917;-63
2023/08/21 00:14:58;;;;;;;;;;;;;;;;;;5020657;28;19933;-64
2023/08/21 00:17:26;;;;;;;;;;;;;;;;;;5018721;28;20028;-61
2023/08/21 00:19:51;;;;;;;;;;;;;;;;;;5017537;28;19928;-62
2023/08/21 00:22:19;;;;;;;;;;;;;;;;;;5035685;28;19955;-62
2023/08/21 00:24:46;;;;;;;;;;;;;;;;;;5037521;28;20004;-62
2023/08/21 00:27:12;;;;;;;;;;;;;;;;;;5008461;28;20400;-62
2023/08/21 00:29:38;;;;;;;;;;;;;;;;;;5038014;28;19931;-62
2023/08/21 00:32:03;;;;;;;;;;;;;;;;;;5017832;28;19966;-63
2023/08/21 00:34:28;;;;;;;;;;;;;;;;;;5017141;28;22014;-62
2023/08/21 00:36:53;;;;;;;;;;;;;;;;;;5022507;28;20379;-63
2023/08/21 00:39:21;;;;;;;;;;;;;;;;;;5037821;28;20444;-62
2023/08/21 00:41:46;;;;;;;;;;;;;;;;;;5027622;28;19987;-63
2023/08/21 00:44:14;;;;;;;;;;;;;;;;;;5000223;28;19921;-63
2023/08/21 00:46:39;;;;;;;;;;;;;;;;;;4999513;28;19978;-63
2023/08/21 00:49:04;;;;;;;;;;;;;;;;;;5006142;28;20173;-62
2023/08/21 00:51:32;;;;;;;;;;;;;;;;;;5016636;28;19928;-63
2023/08/21 00:54:00;;;;;;;;;;;;;;;;;;5021608;28;19917;-63
2023/08/21 00:56:25;;;;;;;;;;;;;;;;;;5008911;28;19921;-63
2023/08/21 00:58:53;;;;;;;;;;;;;;;;;;5025864;28;19936;-63
2023/08/21 01:01:19;;;;;;;;;;;;;;;;;;5027009;28;19920;-63
2023/08/21 01:03:44;;;;;;;;;;;;;;;;;;5037553;28;19990;-63
2023/08/21 01:06:09;;;;;;;;;;;;;;;;;;5006233;28;19966;-63
2023/08/21 01:08:35;;;;;;;;;;;;;;;;;;5041790;28;20440;-64
2023/08/21 01:11:05;;;;;;;;;;;;;;;;;;5010580;28;19924;-63
2023/08/21 01:13:31;;;;;;;;;;;;;;;;;;5025007;28;20031;-63
2023/08/21 01:15:56;;;;;;;;;;;;;;;;;;5011992;28;19988;-64
2023/08/21 01:18:24;;;;;;;;;;;;;;;;;;5023094;28;19948;-64
2023/08/21 01:20:50;;;;;;;;;;;;;;;;;;5021737;28;19944;-64
2023/08/21 01:23:15;;;;;;;;;;;;;;;;;;5022502;28;19931;-64
2023/08/21 01:25:43;;;;;;;;;;;;;;;;;;5039682;28;19948;-63
2023/08/21 01:28:11;;;;;;;;;;;;;;;;;;5028176;28;20005;-63
2023/08/21 01:30:39;;;;;;;;;;;;;;;;;;5013478;28;20031;-63
2023/08/21 01:33:05;;;;;;;;;;;;;;;;;;5011364;28;19921;-63
2023/08/21 01:35:30;;;;;;;;;;;;;;;;;;5024982;28;19912;-63
2023/08/21 01:37:56;;;;;;;;;;;;;;;;;;5041165;28;19920;-63
2023/08/21 01:40:24;;;;;;;;;;;;;;;;;;5040469;28;19940;-63
2023/08/21 01:42:49;;;;;;;;;;;;;;;;;;5012253;28;19920;-63
2023/08/21 01:45:14;;;;;;;;;;;;;;;;;;5022794;28;20509;-63
2023/08/21 01:47:40;;;;;;;;;;;;;;;;;;5039261;28;20351;-63
2023/08/21 01:50:05;;;;;;;;;;;;;;;;;;5040074;28;20284;-63
2023/08/21 01:52:31;;;;;;;;;;;;;;;;;;5041812;28;19916;-63
2023/08/21 01:54:56;;;;;;;;;;;;;;;;;;5019738;28;20394;-63
2023/08/21 01:57:22;;;;;;;;;;;;;;;;;;5020729;28;19967;-63
2023/08/21 01:59:48;;;;;;;;;;;;;;;;;;5022115;28;20855;-62
2023/08/21 02:02:16;;;;;;;;;;;;;;;;;;5040752;28;19916;-62
2023/08/21 02:04:41;;;;;;;;;;;;;;;;;;5020101;28;19921;-63
2023/08/21 02:07:07;;;;;;;;;;;;;;;;;;5041401;28;20429;-63
2023/08/21 02:09:32;;;;;;;;;;;;;;;;;;5025369;28;19932;-64
2023/08/21 02:11:57;;;;;;;;;;;;;;;;;;5008869;28;19948;-63
2023/08/21 02:14:23;;;;;;;;;;;;;;;;;;5005011;28;19927;-63
2023/08/21 02:16:48;;;;;;;;;;;;;;;;;;5003680;28;19921;-63
2023/08/21 02:19:13;;;;;;;;;;;;;;;;;;5018211;28;19928;-63
2023/08/21 02:21:39;;;;;;;;;;;;;;;;;;5020278;28;19925;-63
2023/08/21 02:24:04;;;;;;;;;;;;;;;;;;5038023;28;19916;-63
2023/08/21 02:26:29;;;;;;;;;;;;;;;;;;5035820;28;19920;-64
2023/08/21 02:28:54;;;;;;;;;;;;;;;;;;5038038;28;20568;-63
2023/08/21 02:31:23;;;;;;;;;;;;;;;;;;5011181;28;20003;-63
2023/08/21 02:33:49;;;;;;;;;;;;;;;;;;5020862;28;19920;-63
2023/08/21 02:36:15;;;;;;;;;;;;;;;;;;5025237;28;20522;-63
2023/08/21 02:38:40;;;;;;;;;;;;;;;;;;5038463;28;19928;-63
2023/08/21 02:41:08;;;;;;;;;;;;;;;;;;5010266;28;19920;-63
2023/08/21 02:43:33;;;;;;;;;;;;;;;;;;5009112;28;19927;-63
2023/08/21 02:46:01;;;;;;;;;;;;;;;;;;5023401;28;19927;-62
2023/08/21 02:48:29;;;;;;;;;;;;;;;;;;5039957;28;19921;-62
2023/08/21 02:50:54;;;;;;;;;;;;;;;;;;5008808;28;19966;-63
2023/08/21 02:53:20;;;;;;;;;;;;;;;;;;5006495;28;19981;-62
2023/08/21 02:55:45;;;;;;;;;;;;;;;;;;5039575;28;20367;-63
2023/08/21 02:58:11;;;;;;;;;;;;;;;;;;5027680;28;20012;-63
2023/08/21 03:00:54;;;;;;;;;;;;;;;;;;5026493;28;19935;-63
2023/08/21 03:03:19;;;;;;;;;;;;;;;;;;5010221;28;19920;-63
2023/08/21 03:05:45;;;;;;;;;;;;;;;;;;5019081;28;19925;-63
2023/08/21 03:08:10;;;;;;;;;;;;;;;;;;5010577;28;21776;-63
2023/08/21 03:10:38;;;;;;;;;;;;;;;;;;5022286;28;19933;-63
2023/08/21 03:13:06;;;;;;;;;;;;;;;;;;5022699;28;19964;-62
2023/08/21 03:15:31;;;;;;;;;;;;;;;;;;5010158;28;20225;-63
2023/08/21 03:17:56;;;;;;;;;;;;;;;;;;5041050;28;19944;-63
2023/08/21 03:20:22;;;;;;;;;;;;;;;;;;5039602;28;19917;-62
2023/08/21 03:22:47;;;;;;;;;;;;;;;;;;5003342;28;20334;-63
2023/08/21 03:25:16;;;;;;;;;;;;;;;;;;5023614;28;20028;-62
2023/08/21 03:27:44;;;;;;;;;;;;;;;;;;5039570;28;19920;-64
2023/08/21 03:32:55;;;;;;;;;;;;;;;;;;5036564;28;19927;-62
2023/08/21 03:35:20;;;;;;;;;;;;;;;;;;5008833;28;19920;-63
2023/08/21 03:37:45;;;;;;;;;;;;;;;;;;5015850;28;20001;-62
2023/08/21 03:40:11;;;;;;;;;;;;;;;;;;5040328;28;19924;-63
2023/08/21 03:42:36;;;;;;;;;;;;;;;;;;5038738;28;19921;-63
2023/08/21 03:45:03;;;;;;;;;;;;;;;;;;5021820;28;19916;-63
2023/08/21 03:47:29;;;;;;;;;;;;;;;;;;5020079;28;19917;-62
2023/08/21 03:49:56;;;;;;;;;;;;;;;;;;5020084;28;19924;-63
2023/08/21 03:52:22;;;;;;;;;;;;;;;;;;5041048;28;19986;-63
2023/08/21 03:54:47;;;;;;;;;;;;;;;;;;5023143;28;20033;-63
2023/08/21 03:57:12;;;;;;;;;;;;;;;;;;5026931;28;19921;-63
2023/08/21 03:59:38;;;;;;;;;;;;;;;;;;5038410;28;20053;-63
2023/08/21 04:02:03;;;;;;;;;;;;;;;;;;5032588;28;19920;-63
2023/08/21 04:04:29;;;;;;;;;;;;;;;;;;5037121;28;19928;-63
2023/08/21 04:06:54;;;;;;;;;;;;;;;;;;5019384;28;19920;-63
2023/08/21 04:09:20;;;;;;;;;;;;;;;;;;5008095;28;19932;-63
2023/08/21 04:11:45;;;;;;;;;;;;;;;;;;5027227;28;19917;-63
2023/08/21 04:14:13;;;;;;;;;;;;;;;;;;5022060;28;19917;-63
2023/08/21 04:16:39;;;;;;;;;;;;;;;;;;5036487;28;19923;-63
2023/08/21 04:19:04;;;;;;;;;;;;;;;;;;5034680;28;19931;-64
2023/08/21 04:21:29;;;;;;;;;;;;;;;;;;5020274;28;19917;-64
2023/08/21 04:23:56;;;;;;;;;;;;;;;;;;5039221;28;19920;-64
2023/08/21 04:26:22;;;;;;;;;;;;;;;;;;5039421;28;19932;-64
2023/08/21 04:28:50;;;;;;;;;;;;;;;;;;5021097;28;19921;-64
2023/08/21 04:31:15;;;;;;;;;;;;;;;;;;5018558;28;19925;-64
2023/08/21 04:36:57;;;;;;;;;;;;;;;;;;5039673;28;19932;-64
2023/08/21 04:39:22;;;;;;;;;;;;;;;;;;5037338;28;19963;-63
2023/08/21 04:41:47;;;;;;;;;;;;;;;;;;5020138;28;19921;-63
2023/08/21 04:44:13;;;;;;;;;;;;;;;;;;5021021;28;19942;-64
2023/08/21 04:46:43;;;;;;;;;;;;;;;;;;5037494;28;19924;-64
2023/08/21 04:49:11;;;;;;;;;;;;;;;;;;5037026;28;19974;-64
2023/08/21 04:51:36;;;;;;;;;;;;;;;;;;5021930;28;19920;-64
2023/08/21 04:54:01;;;;;;;;;;;;;;;;;;5014314;28;20217;-63
2023/08/21 04:56:27;;;;;;;;;;;;;;;;;;5015765;28;20023;-64
2023/08/21 04:58:52;;;;;;;;;;;;;;;;;;5034915;28;19959;-65
2023/08/21 05:01:17;;;;;;;;;;;;;;;;;;5036493;28;19925;-65
2023/08/21 05:03:45;;;;;;;;;;;;;;;;;;5017148;28;19974;-65
2023/08/21 05:06:10;;;;;;;;;;;;;;;;;;5037885;28;19921;-65
2023/08/21 05:08:36;;;;;;;;;;;;;;;;;;5016746;28;21898;-65
2023/08/21 05:11:01;;;;;;;;;;;;;;;;;;5036122;28;19925;-64
2023/08/21 05:13:26;;;;;;;;;;;;;;;;;;5017760;28;19916;-64
2023/08/21 05:15:52;;;;;;;;;;;;;;;;;;5039327;28;19920;-64
2023/08/21 05:18:17;;;;;;;;;;;;;;;;;;5020906;28;19916;-64
2023/08/21 05:20:46;;;;;;;;;;;;;;;;;;5002197;28;19920;-64
2023/08/21 05:23:11;;;;;;;;;;;;;;;;;;5038614;28;19967;-64
2023/08/21 05:25:36;;;;;;;;;;;;;;;;;;5018832;28;20015;-65
2023/08/21 05:28:02;;;;;;;;;;;;;;;;;;5018777;28;20852;-65
2023/08/21 05:30:29;;;;;;;;;;;;;;;;;;5019474;28;19924;-65
2023/08/21 05:32:55;;;;;;;;;;;;;;;;;;5038130;28;19966;-65
2023/08/21 05:35:20;;;;;;;;;;;;;;;;;;5037752;28;19920;-65
2023/08/21 05:37:45;;;;;;;;;;;;;;;;;;5024277;28;21871;-64
2023/08/21 05:40:12;;;;;;;;;;;;;;;;;;5038828;28;20050;-64
2023/08/21 05:42:37;;;;;;;;;;;;;;;;;;5037793;28;19952;-64
2023/08/21 05:45:02;;;;;;;;;;;;;;;;;;5037334;28;20007;-64
2023/08/21 05:47:28;;;;;;;;;;;;;;;;;;5014003;28;19920;-64
2023/08/21 05:49:53;;;;;;;;;;;;;;;;;;5015992;28;19975;-64
2023/08/21 05:52:18;;;;;;;;;;;;;;;;;;5035263;28;20581;-64
2023/08/21 05:54:44;;;;;;;;;;;;;;;;;;5021421;28;20062;-64
2023/08/21 05:57:09;;;;;;;;;;;;;;;;;;5036825;28;20371;-64
2023/08/21 05:59:34;;;;;;;;;;;;;;;;;;5040700;28;20624;-64
2023/08/21 06:02:00;;;;;;;;;;;;;;;;;;5039893;28;19955;-65
2023/08/21 06:04:26;;;;;;;;;;;;;;;;;;5038631;28;19920;-64
2023/08/21 06:06:54;;;;;;;;;;;;;;;;;;5022962;28;20299;-64
2023/08/21 06:09:22;;;;;;;;;;;;;;;;;;5039841;28;19936;-64
2023/08/21 06:11:48;;;;;;;;;;;;;;;;;;5041225;28;19921;-64
2023/08/21 06:14:13;;;;;;;;;;;;;;;;;;5029658;28;20563;-64
2023/08/21 06:16:41;;;;;;;;;;;;;;;;;;5040392;28;19921;-64
2023/08/21 06:19:06;;;;;;;;;;;;;;;;;;5039668;28;19920;-64
2023/08/21 06:21:34;;;;;;;;;;;;;;;;;;5040937;28;19923;-64
2023/08/21 06:23:59;;;;;;;;;;;;;;;;;;5020926;28;19917;-65
2023/08/21 06:26:25;;;;;;;;;;;;;;;;;;5020496;28;20030;-65
2023/08/21 06:28:50;;;;;;;;;;;;;;;;;;5040385;28;19923;-65
2023/08/21 06:31:15;;;;;;;;;;;;;;;;;;5020070;28;19925;-65
2023/08/21 06:33:40;;;;;;;;;;;;;;;;;;5025173;28;19916;-65
2023/08/21 06:36:06;;;;;;;;;;;;;;;;;;5040501;28;20008;-65
2023/08/21 06:38:31;;;;;;;;;;;;;;;;;;5037993;28;19928;-65
2023/08/21 06:40:56;;;;;;;;;;;;;;;;;;5028291;28;20722;-65
2023/08/21 06:43:22;;;;;;;;;;;;;;;;;;5009461;28;20505;-66
2023/08/21 06:45:47;;;;;;;;;;;;;;;;;;5019876;28;19924;-65
2023/08/21 06:48:12;;;;;;;;;;;;;;;;;;5038610;28;19994;-65
2023/08/21 06:50:38;;;;;;;;;;;;;;;;;;5011224;28;19925;-65
2023/08/21 06:53:03;;;;;;;;;;;;;;;;;;5009557;28;20934;-65
2023/08/21 06:58:45;;;;;;;;;;;;;;;;;;5039227;28;19927;-65
2023/08/21 07:01:10;;;;;;;;;;;;;;;;;;5009961;28;19928;-65
2023/08/21 07:03:36;;;;;;;;;;;;;;;;;;5019196;28;19924;-65
2023/08/21 07:06:02;;;;;;;;;;;;;;;;;;5039426;28;19927;-65
2023/08/21 07:08:27;;;;;;;;;;;;;;;;;;5018203;28;19923;-64
2023/08/21 07:10:53;;;;;;;;;;;;;;;;;;5003766;28;19920;-65
2023/08/21 07:13:18;;;;;;;;;;;;;;;;;;5004877;28;19938;-65
2023/08/21 07:15:43;;;;;;;;;;;;;;;;;;5037502;28;19927;-64
2023/08/21 07:18:09;;;;;;;;;;;;;;;;;;5003238;28;19920;-64
2023/08/21 07:20:34;;;;;;;;;;;;;;;;;;5038136;28;19920;-64
2023/08/21 07:22:59;;;;;;;;;;;;;;;;;;5039288;28;19921;-64
2023/08/21 07:25:31;;;;;;;;;;;;;;;;;;5023697;28;19928;-65
2023/08/21 07:27:56;;;;;;;;;;;;;;;;;;5008130;28;20703;-65
2023/08/21 07:30:24;;;;;;;;;;;;;;;;;;5035538;28;19927;-65
2023/08/21 07:32:54;;;;;;;;;;;;;;;;;;5026023;28;19952;-65
2023/08/21 07:35:20;;;;;;;;;;;;;;;;;;5009024;28;20814;-65
2023/08/21 07:37:48;;;;;;;;;;;;;;;;;;5037398;28;20091;-65
2023/08/21 07:40:13;;;;;;;;;;;;;;;;;;5018585;28;20237;-65
2023/08/21 07:42:39;;;;;;;;;;;;;;;;;;5036899;28;20001;-65
2023/08/21 07:45:06;;;;;;;;;;;;;;;;;;5038192;28;19916;-65
2023/08/21 07:47:39;;;;;;;;;;;;;;;;;;5018650;28;20497;-66
2023/08/21 07:50:07;;;;;;;;;;;;;;;;;;5020504;28;19940;-65
2023/08/21 07:52:35;;;;;;;;;;;;;;;;;;5008095;28;19916;-65
2023/08/21 07:55:00;;;;;;;;;;;;;;;;;;5028220;28;19924;-65
2023/08/21 07:57:26;;;;;;;;;;;;;;;;;;5037504;28;19921;-66
2023/08/21 07:59:51;;;;;;;;;;;;;;;;;;5036056;28;20702;-65
2023/08/21 08:02:17;;;;;;;;;;;;;;;;;;5037586;28;20422;-65
2023/08/21 08:04:43;;;;;;;;;;;;;;;;;;5017563;28;19916;-65
2023/08/21 08:07:08;;;;;;;;;;;;;;;;;;5038606;28;19921;-66
2023/08/21 08:09:33;;;;;;;;;;;;;;;;;;5026991;28;20629;-66
2023/08/21 08:11:58;;;;;;;;;;;;;;;;;;5038327;28;19931;-65
2023/08/21 08:14:24;;;;;;;;;;;;;;;;;;5009692;28;19924;-65
2023/08/21 08:16:49;;;;;;;;;;;;;;;;;;5009086;28;19921;-64
2023/08/21 08:19:14;;;;;;;;;;;;;;;;;;5037145;28;20497;-65
2023/08/21 08:21:42;;;;;;;;;;;;;;;;;;5017897;28;19920;-65
2023/08/21 08:24:08;;;;;;;;;;;;;;;;;;5037155;28;20719;-65
2023/08/21 08:26:33;;;;;;;;;;;;;;;;;;5018159;28;19917;-65
2023/08/21 08:28:58;;;;;;;;;;;;;;;;;;5007293;28;19920;-65
2023/08/21 08:31:25;;;;;;;;;;;;;;;;;;5022593;28;19924;-66
2023/08/21 08:33:50;;;;;;;;;;;;;;;;;;5037186;28;19931;-66
2023/08/21 08:36:16;;;;;;;;;;;;;;;;;;5037955;28;19920;-65
2023/08/21 08:38:43;;;;;;;;;;;;;;;;;;5037356;28;19920;-66
2023/08/21 08:41:08;;;;;;;;;;;;;;;;;;5016717;28;19936;-66
2023/08/21 08:43:33;;;;;;;;;;;;;;;;;;5037855;28;19917;-66
2023/08/21 08:45:58;;;;;;;;;;;;;;;;;;5008039;28;19930;-66
2023/08/21 08:48:24;;;;;;;;;;;;;;;;;;5017061;28;19974;-66
2023/08/21 08:50:49;;;;;;;;;;;;;;;;;;5017686;28;20309;-65
2023/08/21 08:53:15;;;;;;;;;;;;;;;;;;5017209;28;19964;-66
2023/08/21 08:55:46;;;;;;;;;;;;;;;;;;5025968;28;19917;-66
2023/08/21 08:58:11;;;;;;;;;;;;;;;;;;5022468;28;19917;-66
2023/08/21 09:03:53;;;;;;;;;;;;;;;;;;5037979;28;19962;-65
2023/08/21 09:06:18;;;;;;;;;;;;;;;;;;5038601;28;20600;-65
2023/08/21 09:08:44;;;;;;;;;;;;;;;;;;5009530;28;19916;-65
2023/08/21 09:11:09;;;;;;;;;;;;;;;;;;5002694;28;19921;-65
2023/08/21 09:13:34;;;;;;;;;;;;;;;;;;5003209;28;19947;-66
2023/08/21 09:16:00;;;;;;;;;;;;;;;;;;5021601;28;19921;-66
2023/08/21 09:18:25;;;;;;;;;;;;;;;;;;5038713;28;20034;-65
2023/08/21 09:20:51;;;;;;;;;;;;;;;;;;5020643;28;19924;-65
2023/08/21 09:23:16;;;;;;;;;;;;;;;;;;5000588;28;20355;-65
2023/08/21 09:25:43;;;;;;;;;;;;;;;;;;5019931;28;20311;-65
2023/08/21 09:28:08;;;;;;;;;;;;;;;;;;5038147;28;20317;-66
2023/08/21 09:30:36;;;;;;;;;;;;;;;;;;5027964;28;20740;-65
2023/08/21 09:33:04;;;;;;;;;;;;;;;;;;5041975;28;19920;-66
2023/08/21 09:35:29;;;;;;;;;;;;;;;;;;5041101;28;20569;-65
2023/08/21 09:37:55;;;;;;;;;;;;;;;;;;5041143;28;20005;-65
2023/08/21 09:40:21;;;;;;;;;;;;;;;;;;5004053;28;19921;-66
2023/08/21 09:42:47;;;;;;;;;;;;;;;;;;5017205;28;19921;-66
2023/08/21 09:45:12;;;;;;;;;;;;;;;;;;5041252;28;19921;-65
2023/08/21 09:47:39;;;;;;;;;;;;;;;;;;5028492;28;19994;-67
2023/08/21 09:50:04;;;;;;;;;;;;;;;;;;5024259;28;19927;-66
2023/08/21 09:52:29;;;;;;;;;;;;;;;;;;5042268;28;19920;-68
2023/08/21 09:54:57;;;;;;;;;;;;;;;;;;5020780;28;19921;-66
2023/08/21 09:57:22;;;;;;;;;;;;;;;;;;5023275;28;20027;-67
2023/08/21 09:59:47;;;;;;;;;;;;;;;;;;5004103;28;20011;-66
2023/08/21 10:05:10;;;;;;;;;;;;;;;;;;5021812;28;19921;-66
2023/08/21 10:07:35;;;;;;;;;;;;;;;;;;5022140;28;20514;-66
2023/08/21 10:10:03;;;;;;;;;;;;;;;;;;5024003;28;19921;-66
2023/08/21 10:12:28;;;;;;;;;;;;;;;;;;5012414;28;19928;-66
2023/08/21 10:14:54;;;;;;;;;;;;;;;;;;5021325;28;19927;-66
2023/08/21 10:17:19;;;;;;;;;;;;;;;;;;5018056;28;19927;-68
2023/08/21 10:19:44;;;;;;;;;;;;;;;;;;5040084;28;19943;-67
2023/08/21 10:22:09;;;;;;;;;;;;;;;;;;5040867;28;19927;-67
2023/08/21 10:24:44;;;;;;;;;;;;;;;;;;5017043;28;20448;-67
2023/08/21 10:27:10;;;;;;;;;;;;;;;;;;5039429;28;20832;-66
2023/08/21 10:29:36;;;;;;;;;;;;;;;;;;5040544;28;19917;-66
2023/08/21 10:34:52;;;;;;;;;;;;;;;;;;5040750;28;19928;-66
2023/08/21 10:37:21;;;;;;;;;;;;;;;;;;5039817;28;19989;-66
2023/08/21 10:39:48;;;;;;;;;;;;;;;;;;5004698;28;19924;-66
2023/08/21 10:42:14;;;;;;;;;;;;;;;;;;5017178;28;19920;-66
2023/08/21 10:44:39;;;;;;;;;;;;;;;;;;5040603;28;20002;-66
2023/08/21 10:47:04;;;;;;;;;;;;;;;;;;5020833;28;19959;-65
2023/08/21 10:49:30;;;;;;;;;;;;;;;;;;5023621;28;19924;-66
2023/08/21 10:52:00;;;;;;;;;;;;;;;;;;5021366;28;19920;-65
2023/08/21 10:54:30;;;;;;;;;;;;;;;;;;5020942;28;21942;-68
2023/08/21 10:56:56;;;;;;;;;;;;;;;;;;5041412;28;19921;-66
2023/08/21 10:59:21;;;;;;;;;;;;;;;;;;5022354;28;19920;-65
2023/08/21 11:01:50;;;;;;;;;;;;;;;;;;5021005;28;19921;-67
2023/08/21 11:04:18;;;;;;;;;;;;;;;;;;5003215;28;20344;-64
2023/08/21 11:06:43;;;;;;;;;;;;;;;;;;5024132;28;20047;-66
2023/08/21 11:09:09;;;;;;;;;;;;;;;;;;5020671;28;20342;-65
2023/08/21 11:11:34;;;;;;;;;;;;;;;;;;5037221;28;19917;-65
2023/08/21 11:14:00;;;;;;;;;;;;;;;;;;5041068;28;19928;-66
2023/08/21 11:16:26;;;;;;;;;;;;;;;;;;5020434;28;19927;-65
2023/08/21 11:18:51;;;;;;;;;;;;;;;;;;5019432;28;19920;-67
2023/08/21 11:21:16;;;;;;;;;;;;;;;;;;5022325;28;19937;-66
2023/08/21 11:23:44;;;;;;;;;;;;;;;;;;5003749;28;19967;-66
2023/08/21 11:26:12;;;;;;;;;;;;;;;;;;5009534;28;20005;-68
2023/08/21 11:28:37;;;;;;;;;;;;;;;;;;5038295;28;19917;-66
2023/08/21 11:31:04;;;;;;;;;;;;;;;;;;5040477;28;19917;-66
2023/08/21 11:33:30;;;;;;;;;;;;;;;;;;5038755;28;20115;-67
2023/08/21 11:35:58;;;;;;;;;;;;;;;;;;5020161;28;19923;-66
2023/08/21 11:38:24;;;;;;;;;;;;;;;;;;5022523;28;21691;-67
2023/08/21 11:40:50;;;;;;;;;;;;;;;;;;5017822;28;19928;-65
2023/08/21 11:43:19;;;;;;;;;;;;;;;;;;5026188;28;20529;-66
2023/08/21 11:45:44;;;;;;;;;;;;;;;;;;5021962;28;19923;-66
2023/08/21 11:48:09;;;;;;;;;;;;;;;;;;5037892;28;19920;-66
2023/08/21 11:50:35;;;;;;;;;;;;;;;;;;5026617;28;19924;-66
2023/08/21 11:53:00;;;;;;;;;;;;;;;;;;5019935;28;19920;-66
2023/08/21 11:55:25;;;;;;;;;;;;;;;;;;5015529;28;19917;-66
2023/08/21 11:57:50;;;;;;;;;;;;;;;;;;5008918;28;19928;-67
2023/08/21 12:00:21;;;;;;;;;;;;;;;;;;5004291;28;19955;-67
2023/08/21 12:02:49;;;;;;;;;;;;;;;;;;5026522;28;20494;-66
2023/08/21 12:05:15;;;;;;;;;;;;;;;;;;5018579;28;19921;-69
2023/08/21 12:07:40;;;;;;;;;;;;;;;;;;5017860;28;20036;-66
2023/08/21 12:13:22;;;;;;;;;;;;;;;;;;5018287;28;19974;-66
2023/08/21 12:15:48;;;;;;;;;;;;;;;;;;5018100;28;20319;-67
2023/08/21 12:18:13;;;;;;;;;;;;;;;;;;5007600;28;19956;-66
2023/08/21 12:20:41;;;;;;;;;;;;;;;;;;5008797;28;19928;-69
2023/08/21 12:23:09;;;;;;;;;;;;;;;;;;5018801;28;19961;-67
2023/08/21 12:25:37;;;;;;;;;;;;;;;;;;5016935;28;20102;-67
2023/08/21 12:28:02;;;;;;;;;;;;;;;;;;5013973;28;20035;-69
2023/08/21 12:33:21;;;;;;;;;;;;;;;;;;5023871;28;20283;-67
2023/08/21 12:35:46;;;;;;;;;;;;;;;;;;5019992;28;20558;-67
2023/08/21 12:38:14;;;;;;;;;;;;;;;;;;4998770;28;19921;-67
2023/08/21 12:40:39;;;;;;;;;;;;;;;;;;5001979;28;19921;-70
2023/08/21 12:43:04;;;;;;;;;;;;;;;;;;5014640;28;19950;-66
2023/08/21 12:45:30;;;;;;;;;;;;;;;;;;5012785;28;19921;-67
2023/08/21 12:47:55;;;;;;;;;;;;;;;;;;5031225;28;19921;-67
2023/08/21 12:50:20;;;;;;;;;;;;;;;;;;5020089;28;20114;-69
2023/08/21 12:52:46;;;;;;;;;;;;;;;;;;5015305;28;20062;-68
2023/08/21 12:56:22;;;;;;;;;;;;;;;;;;5068834;27;19935;-68
2023/08/21 12:58:47;;;;;;;;;;;;;;;;;;5062826;28;19916;-66
2023/08/21 13:01:12;;;;;;;;;;;;;;;;;;5062831;28;19956;-67
2023/08/21 13:03:43;;;;;;;;;;;;;;;;;;5072244;28;19920;-66
2023/08/21 13:06:13;;;;;;;;;;;;;;;;;;5074336;28;19924;-66
2023/08/21 13:08:39;;;;;;;;;;;;;;;;;;5052884;28;20281;-66
2023/08/21 13:11:05;;;;;;;;;;;;;;;;;;5058663;28;19920;-64
2023/08/21 13:13:36;;;;;;;;;;;;;;;;;;5053677;28;19927;-67
2023/08/21 13:16:04;;;;;;;;;;;;;;;;;;5074761;28;20027;-66
2023/08/21 13:18:29;;;;;;;;;;;;;;;;;;5069724;28;19934;-66
2023/08/21 13:20:54;;;;;;;;;;;;;;;;;;5060961;28;19924;-66
2023/08/21 13:23:22;;;;;;;;;;;;;;;;;;5081350;28;19920;-66
2023/08/21 13:25:48;;;;;;;;;;;;;;;;;;5069568;28;19916;-69
2023/08/21 13:28:13;;;;;;;;;;;;;;;;;;5072132;28;19963;-66
2023/08/21 13:30:41;;;;;;;;;;;;;;;;;;5068054;28;20003;-67
2023/08/21 13:33:06;;;;;;;;;;;;;;;;;;5073821;28;20283;-66
2023/08/21 13:35:44;;;;;;;;;;;;;;;;;;5069618;28;19964;-66
2023/08/21 13:38:11;;;;;;;;;;;;;;;;;;5055024;28;19916;-67
2023/08/21 13:40:40;;;;;;;;;;;;;;;;;;5074824;28;19920;-66
2023/08/21 13:43:07;;;;;;;;;;;;;;;;;;5055461;28;20029;-67
2023/08/21 13:45:34;;;;;;;;;;;;;;;;;;5071721;28;20082;-67
2023/08/21 13:48:04;;;;;;;;;;;;;;;;;;5071248;28;19963;-67
2023/08/21 13:50:30;;;;;;;;;;;;;;;;;;5070083;28;19991;-66
2023/08/21 13:52:58;;;;;;;;;;;;;;;;;;5073716;28;20117;-65
2023/08/21 13:58:21;;;;;;;;;;;;;;;;;;5069507;28;19920;-66
2023/08/21 14:04:03;;;;;;;;;;;;;;;;;;5072060;28;19927;-66
2023/08/21 14:06:29;;;;;;;;;;;;;;;;;;5072961;28;19936;-66
2023/08/21 14:08:54;;;;;;;;;;;;;;;;;;5040574;28;19920;-67
2023/08/21 14:11:20;;;;;;;;;;;;;;;;;;5060607;28;19924;-66
2023/08/21 14:13:48;;;;;;;;;;;;;;;;;;5056172;28;19960;-66
2023/08/21 14:16:13;;;;;;;;;;;;;;;;;;5049039;28;19930;-66
2023/08/21 14:18:41;;;;;;;;;;;;;;;;;;5058226;28;19947;-66
2023/08/21 14:21:09;;;;;;;;;;;;;;;;;;5055278;28;19993;-66
2023/08/21 14:23:35;;;;;;;;;;;;;;;;;;5069928;28;19951;-66
2023/08/21 14:26:03;;;;;;;;;;;;;;;;;;5054202;28;19982;-66
2023/08/21 14:28:31;;;;;;;;;;;;;;;;;;5059454;28;19920;-66
2023/08/21 14:30:56;;;;;;;;;;;;;;;;;;5055663;28;20037;-64
2023/08/21 14:33:21;;;;;;;;;;;;;;;;;;5053007;28;20862;-68
2023/08/21 14:35:49;;;;;;;;;;;;;;;;;;5060180;28;20009;-66
2023/08/21 14:38:17;;;;;;;;;;;;;;;;;;5052122;28;19926;-65
2023/08/21 14:40:45;;;;;;;;;;;;;;;;;;5052561;28;20037;-65
2023/08/21 14:43:13;;;;;;;;;;;;;;;;;;5039483;28;19953;-65
2023/08/21 14:45:39;;;;;;;;;;;;;;;;;;5051715;28;19924;-67
2023/08/21 14:48:05;;;;;;;;;;;;;;;;;;5038436;28;19927;-67
2023/08/21 14:50:30;;;;;;;;;;;;;;;;;;5044940;28;19970;-66
2023/08/21 14:52:55;;;;;;;;;;;;;;;;;;5055854;28;19943;-66
2023/08/21 14:55:26;;;;;;;;;;;;;;;;;;5058035;28;19928;-66
2023/08/21 14:57:51;;;;;;;;;;;;;;;;;;5058228;28;19988;-66
2023/08/21 15:00:19;;;;;;;;;;;;;;;;;;5055714;28;19951;-66
2023/08/21 15:02:45;;;;;;;;;;;;;;;;;;5054883;28;19931;-65
2023/08/21 15:05:11;;;;;;;;;;;;;;;;;;5056217;28;19920;-66
2023/08/21 15:07:37;;;;;;;;;;;;;;;;;;5059001;28;19947;-65
2023/08/21 15:10:02;;;;;;;;;;;;;;;;;;5057302;28;20321;-65
2023/08/21 15:12:27;;;;;;;;;;;;;;;;;;5052467;28;19930;-65
2023/08/21 15:14:55;;;;;;;;;;;;;;;;;;5045302;28;19927;-65
2023/08/21 15:17:20;;;;;;;;;;;;;;;;;;5055030;28;19920;-64
2023/08/21 15:23:04;;;;;;;;;;;;;;;;;;5056032;28;19978;-64
2023/08/21 15:25:32;;;;;;;;;;;;;;;;;;5053567;28;19927;-65
2023/08/21 15:27:57;;;;;;;;;;;;;;;;;;5055880;28;19922;-63
2023/08/21 15:30:23;;;;;;;;;;;;;;;;;;5052179;28;22071;-64
2023/08/21 15:32:48;;;;;;;;;;;;;;;;;;5052053;28;19920;-64
2023/08/21 15:35:16;;;;;;;;;;;;;;;;;;5054320;28;19935;-64
2023/08/21 15:37:41;;;;;;;;;;;;;;;;;;5056317;28;19916;-64
2023/08/21 15:40:06;;;;;;;;;;;;;;;;;;5045174;28;20129;-64
2023/08/21 15:42:32;;;;;;;;;;;;;;;;;;5053103;28;19956;-64
2023/08/21 15:44:57;;;;;;;;;;;;;;;;;;5055751;28;19919;-64
2023/08/21 15:47:25;;;;;;;;;;;;;;;;;;5054975;28;20392;-64
2023/08/21 15:49:50;;;;;;;;;;;;;;;;;;5040183;28;19999;-64
2023/08/21 15:52:18;;;;;;;;;;;;;;;;;;5053087;28;19959;-64
2023/08/21 15:54:50;;;;;;;;;;;;;;;;;;5053722;28;19924;-64
2023/08/21 15:57:15;;;;;;;;;;;;;;;;;;5041205;28;19927;-64
2023/08/21 15:59:43;;;;;;;;;;;;;;;;;;5055225;28;21483;-63
2023/08/21 16:02:11;;;;;;;;;;;;;;;;;;5053089;28;19920;-63
2023/08/21 16:04:39;;;;;;;;;;;;;;;;;;5037930;28;19916;-65
2023/08/21 16:07:09;;;;;;;;;;;;;;;;;;5056289;28;19977;-65
2023/08/21 16:09:38;;;;;;;;;;;;;;;;;;5051599;28;20039;-64
2023/08/21 16:12:06;;;;;;;;;;;;;;;;;;5055021;28;19926;-64
2023/08/21 16:14:31;;;;;;;;;;;;;;;;;;5041708;28;19925;-64
2023/08/21 16:16:56;;;;;;;;;;;;;;;;;;5052846;28;20609;-63
2023/08/21 16:19:26;;;;;;;;;;;;;;;;;;5055541;28;19955;-64
2023/08/21 16:21:54;;;;;;;;;;;;;;;;;;5042021;28;19920;-64
2023/08/21 16:24:19;;;;;;;;;;;;;;;;;;5049951;28;21232;-64
2023/08/21 16:26:47;;;;;;;;;;;;;;;;;;5038949;28;20247;-64
2023/08/21 16:29:17;;;;;;;;;;;;;;;;;;5039499;28;20622;-64
2023/08/21 16:31:42;;;;;;;;;;;;;;;;;;5039624;28;19920;-64
2023/08/21 16:34:07;;;;;;;;;;;;;;;;;;5051768;28;21880;-63
2023/08/21 16:36:32;;;;;;;;;;;;;;;;;;5055095;28;19920;-64
2023/08/21 16:38:58;;;;;;;;;;;;;;;;;;5045814;28;20413;-64
2023/08/21 16:41:26;;;;;;;;;;;;;;;;;;5040222;28;19920;-63
2023/08/21 16:43:51;;;;;;;;;;;;;;;;;;5058070;28;20002;-63
2023/08/21 16:46:16;;;;;;;;;;;;;;;;;;5042979;28;20005;-64
2023/08/21 16:48:44;;;;;;;;;;;;;;;;;;5055904;28;19928;-64
2023/08/21 16:51:09;;;;;;;;;;;;;;;;;;5052152;28;19931;-64
2023/08/21 16:53:37;;;;;;;;;;;;;;;;;;5053399;28;20615;-63
2023/08/21 16:56:05;;;;;;;;;;;;;;;;;;5051406;28;20317;-63
2023/08/21 16:58:34;;;;;;;;;;;;;;;;;;5049810;28;19920;-63
2023/08/21 17:01:02;;;;;;;;;;;;;;;;;;5051475;28;19923;-64
2023/08/21 17:03:30;;;;;;;;;;;;;;;;;;5051628;28;19916;-64
2023/08/21 17:05:55;;;;;;;;;;;;;;;;;;5056290;28;20034;-64
2023/08/21 17:08:20;;;;;;;;;;;;;;;;;;5036052;28;19927;-64
2023/08/21 17:10:45;;;;;;;;;;;;;;;;;;5052996;28;19931;-64
2023/08/21 17:13:11;;;;;;;;;;;;;;;;;;5051421;28;19920;-64